EZY81A EGCC-EPKK
Flight info
| Callsign | EZY81A |
|---|---|
| Flight time | N/A |
| Altitude | 37000 |
| Route | DESIG1S DESIG L603 LAMSO DCT PETIK DCT AMSAN DCT KUMER DCT SULED L620 TALEG DCT OMELO DCT ODLIV DCT OMIFU DCT SOPAV DCT PADKA PADKA4G |
| Aircraft | A320/M-V/N |
Departure
| Time | N/A |
|---|---|
| Airport | Manchester Airport (EGCC) |
Arrival
| Time | 2026-04-30 20:14 |
|---|---|
| Airport | Kraków John Paul II International Airport (EPKK) |
| Time | Latitude | Longitude | Altitude | Speed | Heading |
|---|---|---|---|---|---|
| 2026-04-30 19:31 | 50.54174 | 14.72571 | 37455 ft | 442 kts | 116° |
| 2026-04-30 19:31 | 50.50814 | 14.80646 | 37447 ft | 442 kts | 116° |
| 2026-04-30 19:32 | 50.47443 | 14.88730 | 37438 ft | 442 kts | 115° |
| 2026-04-30 19:32 | 50.44097 | 14.96809 | 37471 ft | 441 kts | 115° |
| 2026-04-30 19:33 | 50.40738 | 15.04888 | 37447 ft | 442 kts | 115° |
| 2026-04-30 19:33 | 50.37374 | 15.12955 | 37440 ft | 443 kts | 115° |
| 2026-04-30 19:34 | 50.33992 | 15.21028 | 37431 ft | 443 kts | 116° |
| 2026-04-30 19:35 | 50.28920 | 15.33067 | 37431 ft | 444 kts | 115° |
| 2026-04-30 19:35 | 50.25514 | 15.41117 | 37425 ft | 443 kts | 115° |
| 2026-04-30 19:36 | 50.22117 | 15.49144 | 37413 ft | 443 kts | 115° |
| 2026-04-30 19:36 | 50.16998 | 15.61187 | 37416 ft | 444 kts | 115° |
| 2026-04-30 19:37 | 50.13575 | 15.69211 | 37417 ft | 444 kts | 116° |
| 2026-04-30 19:37 | 50.10722 | 15.75873 | 37441 ft | 445 kts | 115° |
| 2026-04-30 19:38 | 50.07286 | 15.83872 | 37420 ft | 444 kts | 115° |
| 2026-04-30 19:38 | 50.03898 | 15.91891 | 37419 ft | 440 kts | 110° |
| 2026-04-30 19:39 | 50.01784 | 16.00550 | 37421 ft | 420 kts | 94° |
| 2026-04-30 19:39 | 50.01264 | 16.09455 | 37418 ft | 412 kts | 85° |
| 2026-04-30 19:40 | 50.00972 | 16.18349 | 37456 ft | 412 kts | 86° |
| 2026-04-30 19:40 | 50.00653 | 16.27252 | 37446 ft | 413 kts | 86° |
| 2026-04-30 19:41 | 50.00333 | 16.36100 | 37435 ft | 412 kts | 86° |
| 2026-04-30 19:41 | 50.00018 | 16.45007 | 37430 ft | 412 kts | 86° |
| 2026-04-30 19:42 | 49.99700 | 16.53903 | 37416 ft | 412 kts | 86° |
| 2026-04-30 19:42 | 49.99368 | 16.62798 | 37462 ft | 413 kts | 86° |
| 2026-04-30 19:43 | 49.99022 | 16.71714 | 37445 ft | 413 kts | 86° |
| 2026-04-30 19:44 | 49.98499 | 16.85092 | 37431 ft | 414 kts | 86° |
| 2026-04-30 19:44 | 49.98138 | 16.94010 | 37429 ft | 414 kts | 87° |
| 2026-04-30 19:45 | 49.97775 | 17.02946 | 37426 ft | 414 kts | 87° |
| 2026-04-30 19:45 | 49.97410 | 17.11827 | 37439 ft | 415 kts | 87° |
| 2026-04-30 19:46 | 49.97028 | 17.20789 | 37430 ft | 416 kts | 87° |
| 2026-04-30 19:46 | 49.96635 | 17.29756 | 37416 ft | 416 kts | 87° |
| 2026-04-30 19:47 | 49.96239 | 17.38737 | 37414 ft | 416 kts | 87° |
| 2026-04-30 19:47 | 49.95837 | 17.47706 | 37412 ft | 417 kts | 88° |
| 2026-04-30 19:48 | 49.95431 | 17.56690 | 37434 ft | 417 kts | 88° |
| 2026-04-30 19:48 | 49.95013 | 17.65674 | 37416 ft | 418 kts | 88° |
| 2026-04-30 19:49 | 49.94583 | 17.74694 | 37407 ft | 419 kts | 88° |
| 2026-04-30 19:49 | 49.93926 | 17.88246 | 37407 ft | 420 kts | 88° |
| 2026-04-30 19:50 | 49.93480 | 17.97275 | 37392 ft | 420 kts | 88° |
| 2026-04-30 19:50 | 49.93099 | 18.06299 | 37398 ft | 415 kts | 83° |
| 2026-04-30 19:51 | 49.93227 | 18.15158 | 36631 ft | 412 kts | 83° |
| 2026-04-30 19:51 | 49.93286 | 18.19623 | 35400 ft | 414 kts | 82° |
| 2026-04-30 19:51 | 49.93337 | 18.24050 | 34465 ft | 408 kts | 82° |
| 2026-04-30 19:52 | 49.93379 | 18.28282 | 33652 ft | 398 kts | 82° |
| 2026-04-30 19:52 | 49.93350 | 18.32525 | 32965 ft | 390 kts | 84° |
| 2026-04-30 19:52 | 49.93249 | 18.36531 | 32143 ft | 382 kts | 84° |
| 2026-04-30 19:52 | 49.93101 | 18.40587 | 31314 ft | 373 kts | 85° |
| 2026-04-30 19:53 | 49.92941 | 18.44570 | 30514 ft | 368 kts | 84° |
| 2026-04-30 19:53 | 49.92792 | 18.48549 | 29597 ft | 371 kts | 84° |
| 2026-04-30 19:53 | 49.92655 | 18.52566 | 28624 ft | 374 kts | 85° |
| 2026-04-30 19:53 | 49.92523 | 18.56622 | 27716 ft | 377 kts | 85° |
| 2026-04-30 19:54 | 49.92392 | 18.60707 | 26725 ft | 381 kts | 85° |
| 2026-04-30 19:54 | 49.92264 | 18.64839 | 25706 ft | 387 kts | 85° |
| 2026-04-30 19:54 | 49.92133 | 18.69007 | 25186 ft | 381 kts | 85° |
| 2026-04-30 19:54 | 49.91991 | 18.73027 | 25061 ft | 365 kts | 85° |
| 2026-04-30 19:55 | 49.91858 | 18.76621 | 24942 ft | 351 kts | 85° |
| 2026-04-30 19:55 | 49.91719 | 18.80321 | 24821 ft | 337 kts | 85° |
| 2026-04-30 19:55 | 49.91549 | 18.83897 | 24698 ft | 325 kts | 86° |
| 2026-04-30 19:55 | 49.91358 | 18.87323 | 24637 ft | 309 kts | 86° |
| 2026-04-30 19:56 | 49.91167 | 18.90627 | 24427 ft | 308 kts | 86° |
| 2026-04-30 19:56 | 49.90978 | 18.93918 | 24183 ft | 308 kts | 86° |
| 2026-04-30 19:56 | 49.90793 | 18.97185 | 23971 ft | 308 kts | 86° |
| 2026-04-30 19:56 | 49.90604 | 19.00538 | 23696 ft | 308 kts | 86° |
| 2026-04-30 19:57 | 49.90421 | 19.03799 | 23416 ft | 307 kts | 86° |
| 2026-04-30 19:57 | 49.90231 | 19.07146 | 23128 ft | 307 kts | 87° |
| 2026-04-30 19:57 | 49.90043 | 19.10395 | 22847 ft | 306 kts | 87° |
| 2026-04-30 19:57 | 49.89849 | 19.13688 | 22587 ft | 306 kts | 87° |
| 2026-04-30 19:58 | 49.89658 | 19.16923 | 22257 ft | 305 kts | 87° |
| 2026-04-30 19:58 | 49.89466 | 19.20191 | 21822 ft | 304 kts | 87° |
| 2026-04-30 19:58 | 49.89275 | 19.23458 | 21379 ft | 304 kts | 87° |
| 2026-04-30 19:58 | 49.89207 | 19.26699 | 20941 ft | 296 kts | 78° |
| 2026-04-30 19:59 | 49.89574 | 19.29792 | 20516 ft | 289 kts | 67° |
| 2026-04-30 19:59 | 49.90315 | 19.32673 | 19996 ft | 288 kts | 62° |
| 2026-04-30 19:59 | 49.91929 | 19.38375 | 19131 ft | 289 kts | 62° |
| 2026-04-30 20:00 | 49.92730 | 19.41246 | 18708 ft | 290 kts | 63° |
| 2026-04-30 20:00 | 49.93528 | 19.44120 | 18249 ft | 290 kts | 62° |
| 2026-04-30 20:00 | 49.94322 | 19.46989 | 17833 ft | 290 kts | 63° |
| 2026-04-30 20:00 | 49.94980 | 19.49960 | 17444 ft | 292 kts | 73° |
| 2026-04-30 20:01 | 49.95809 | 19.56122 | 16608 ft | 292 kts | 73° |
| 2026-04-30 20:01 | 49.96224 | 19.59180 | 16252 ft | 290 kts | 73° |
| 2026-04-30 20:01 | 49.96641 | 19.62246 | 15917 ft | 288 kts | 73° |
| 2026-04-30 20:02 | 49.97453 | 19.68264 | 15241 ft | 285 kts | 73° |
| 2026-04-30 20:02 | 49.97863 | 19.71278 | 14901 ft | 284 kts | 73° |
| 2026-04-30 20:03 | 49.98669 | 19.77227 | 13996 ft | 280 kts | 74° |
| 2026-04-30 20:03 | 49.99061 | 19.80137 | 13330 ft | 279 kts | 74° |
| 2026-04-30 20:03 | 49.99456 | 19.83069 | 12820 ft | 275 kts | 74° |
| 2026-04-30 20:03 | 49.99849 | 19.85987 | 12408 ft | 277 kts | 74° |
| 2026-04-30 20:04 | 50.00239 | 19.88875 | 12009 ft | 277 kts | 74° |
| 2026-04-30 20:04 | 50.00634 | 19.91806 | 11680 ft | 275 kts | 74° |
| 2026-04-30 20:04 | 50.01018 | 19.94667 | 11558 ft | 266 kts | 74° |
| 2026-04-30 20:05 | 50.01731 | 19.99979 | 11139 ft | 243 kts | 74° |
| 2026-04-30 20:05 | 50.02077 | 20.02538 | 10882 ft | 241 kts | 74° |
| 2026-04-30 20:05 | 50.02766 | 20.07596 | 10369 ft | 238 kts | 73° |
| 2026-04-30 20:06 | 50.03111 | 20.10114 | 10036 ft | 238 kts | 73° |
| 2026-04-30 20:06 | 50.03453 | 20.12622 | 9708 ft | 237 kts | 74° |
| 2026-04-30 20:06 | 50.03793 | 20.15131 | 9341 ft | 237 kts | 74° |
| 2026-04-30 20:06 | 50.04133 | 20.17638 | 8989 ft | 237 kts | 74° |
| 2026-04-30 20:07 | 50.04456 | 20.19997 | 8660 ft | 235 kts | 72° |
| 2026-04-30 20:07 | 50.05151 | 20.22212 | 8329 ft | 227 kts | 45° |
| 2026-04-30 20:07 | 50.07978 | 20.23665 | 7631 ft | 225 kts | 351° |
| 2026-04-30 20:08 | 50.09515 | 20.23168 | 7276 ft | 226 kts | 349° |
| 2026-04-30 20:08 | 50.11051 | 20.22662 | 6922 ft | 226 kts | 347° |
| 2026-04-30 20:08 | 50.12432 | 20.21515 | 6550 ft | 230 kts | 316° |
| 2026-04-30 20:08 | 50.13175 | 20.19312 | 6188 ft | 236 kts | 282° |
| 2026-04-30 20:09 | 50.13042 | 20.16756 | 5846 ft | 240 kts | 260° |
| 2026-04-30 20:09 | 50.12674 | 20.14217 | 5492 ft | 239 kts | 261° |
| 2026-04-30 20:09 | 50.11992 | 20.09230 | 4792 ft | 233 kts | 261° |
| 2026-04-30 20:10 | 50.11338 | 20.04388 | 4048 ft | 230 kts | 261° |
| 2026-04-30 20:10 | 50.11004 | 20.01939 | 3716 ft | 230 kts | 261° |
| 2026-04-30 20:10 | 50.10678 | 19.99565 | 3399 ft | 217 kts | 261° |
| 2026-04-30 20:11 | 50.10122 | 19.95525 | 2890 ft | 182 kts | 261° |
| 2026-04-30 20:11 | 50.09867 | 19.93665 | 2636 ft | 170 kts | 261° |
| 2026-04-30 20:11 | 50.09625 | 19.91898 | 2410 ft | 164 kts | 261° |
| 2026-04-30 20:12 | 50.09166 | 19.88564 | 1965 ft | 150 kts | 259° |
| 2026-04-30 20:12 | 50.08953 | 19.87016 | 1755 ft | 147 kts | 259° |
| 2026-04-30 20:12 | 50.08740 | 19.85473 | 1553 ft | 145 kts | 259° |
| 2026-04-30 20:13 | 50.08530 | 19.83952 | 1355 ft | 143 kts | 258° |
| 2026-04-30 20:13 | 50.08321 | 19.82447 | 1156 ft | 142 kts | 258° |
| 2026-04-30 20:13 | 50.08097 | 19.80957 | 963 ft | 141 kts | 258° |
| 2026-04-30 20:13 | 50.07902 | 19.79464 | 794 ft | 137 kts | 260° |
| 2026-04-30 20:14 | 50.07741 | 19.78270 | 794 ft | 61 kts | 257° |
| 2026-04-30 20:14 | 50.07686 | 19.78097 | 794 ft | 10 kts | 187° |
| 2026-04-30 20:14 | 50.07591 | 19.78089 | 795 ft | 9 kts | 185° |
| 2026-04-30 20:14 | 50.07588 | 19.78089 | 795 ft | 0 kts | 185° |
| 2026-04-30 20:15 | 50.07586 | 19.78089 | 795 ft | 3 kts | 185° |
| 2026-04-30 20:15 | 50.07500 | 19.78083 | 795 ft | 16 kts | 180° |
| 2026-04-30 20:15 | 50.07479 | 19.78202 | 795 ft | 12 kts | 76° |
| 2026-04-30 20:15 | 50.07498 | 19.78322 | 795 ft | 11 kts | 76° |
| 2026-04-30 20:16 | 50.07513 | 19.78447 | 794 ft | 19 kts | 79° |
| 2026-04-30 20:16 | 50.07549 | 19.78702 | 794 ft | 26 kts | 79° |
| 2026-04-30 20:16 | 50.07586 | 19.78978 | 793 ft | 27 kts | 78° |
| 2026-04-30 20:16 | 50.07626 | 19.79268 | 792 ft | 25 kts | 78° |
| 2026-04-30 20:17 | 50.07663 | 19.79540 | 791 ft | 26 kts | 78° |
| 2026-04-30 20:17 | 50.07701 | 19.79810 | 790 ft | 24 kts | 77° |
| 2026-04-30 20:17 | 50.07693 | 19.79972 | 790 ft | 10 kts | 162° |
| 2026-04-30 20:17 | 50.07637 | 19.79949 | 790 ft | 8 kts | 197° |
| 2026-04-30 20:18 | 50.07574 | 19.79918 | 790 ft | 18 kts | 192° |
| 2026-04-30 20:18 | 50.07439 | 19.79952 | 790 ft | 14 kts | 167° |
| 2026-04-30 20:18 | 50.07392 | 19.80036 | 790 ft | 9 kts | 91° |
| 2026-04-30 20:18 | 50.07407 | 19.80127 | 790 ft | 8 kts | 79° |
| 2026-04-30 20:19 | 50.07417 | 19.80206 | 789 ft | 7 kts | 78° |
| 2026-04-30 20:19 | 50.07426 | 19.80225 | 789 ft | 1 kts | 10° |
| 2026-04-30 20:19 | 50.07486 | 19.80210 | 791 ft | 0 kts | 162° |